Time;durP1;ratioP1;P1;durP2;ratioP2;P2;SDS_P1;SDS_P2;PMS_P1;PMS_P2;Temp;Humidity;BMP_temperature;BMP_pressure;BME280_temperature;BME280_humidity;BME280_pressure;Samples;Min_cycle;Max_cycle;Signal;HPM_P1;HPM_P2
2023/10/06 00:01:34;;;;;;;9.17;6.23;;;;;;;15.71;65.34;97632.41;5028568;28;20285;-82
2023/10/06 00:04:06;;;;;;;16.80;6.83;;;;;;;15.89;65.18;97639.22;5029235;28;20203;-78
2023/10/06 00:06:37;;;;;;;13.37;6.53;;;;;;;15.83;65.60;97639.53;5029877;28;20333;-80
2023/10/06 00:09:06;;;;;;;13.80;6.87;;;;;;;15.90;65.49;97644.34;5028517;28;20193;-81
2023/10/06 00:11:37;;;;;;;12.90;6.63;;;;;;;15.74;65.33;97609.59;5029911;28;20287;-86
2023/10/06 00:14:07;;;;;;;15.70;7.53;;;;;;;15.75;65.72;97639.13;5028837;28;20684;-84
2023/10/06 00:16:40;;;;;;;11.73;6.73;;;;;;;15.25;65.84;97572.28;5030892;28;20197;-84
2023/10/06 00:19:26;;;;;;;12.77;6.53;;;;;;;15.46;66.25;97628.56;5042807;28;20202;-86
2023/10/06 00:24:37;;;;;;;14.40;6.37;;;;;;;14.94;68.45;97636.69;5049497;28;20231;-86
2023/10/06 00:27:10;;;;;;;11.97;6.47;;;;;;;14.63;69.41;97627.84;5048969;28;20292;-84
2023/10/06 00:29:39;;;;;;;14.57;6.97;;;;;;;14.37;71.08;97632.75;5049392;28;20727;-85
2023/10/06 00:32:22;;;;;;;16.23;7.03;;;;;;;14.41;70.75;97629.06;5048506;28;20209;-86
2023/10/06 00:34:55;;;;;;;13.90;7.27;;;;;;;14.44;70.75;97611.53;5047665;28;20190;-84
2023/10/06 00:37:23;;;;;;;14.90;7.13;;;;;;;14.71;70.10;97622.25;5051225;28;20200;-84
2023/10/06 00:39:57;;;;;;;13.13;7.07;;;;;;;14.68;70.27;97607.63;5047770;28;20216;-83
2023/10/06 00:42:26;;;;;;;16.57;7.73;;;;;;;14.78;69.74;97623.59;5049343;28;20328;-85
2023/10/06 00:44:53;;;;;;;15.07;7.33;;;;;;;14.71;70.10;97619.66;5046455;28;20198;-86
2023/10/06 00:47:21;;;;;;;13.63;7.77;;;;;;;14.71;69.84;97621.41;5048064;28;20198;-86
2023/10/06 00:49:51;;;;;;;16.13;7.60;;;;;;;14.25;71.64;97617.69;5047385;28;20204;-86
2023/10/06 00:52:18;;;;;;;14.43;8.67;;;;;;;14.15;71.73;97622.56;5048132;28;20229;-86
2023/10/06 00:54:46;;;;;;;11.33;7.57;;;;;;;13.91;73.07;97623.75;5047521;28;20190;-84
2023/10/06 00:57:18;;;;;;;13.07;7.70;;;;;;;13.78;73.58;97610.53;5047819;28;20198;-82
2023/10/06 00:59:46;;;;;;;13.30;7.03;;;;;;;13.82;73.39;97613.81;5048454;28;20203;-86
2023/10/06 01:02:15;;;;;;;11.33;6.70;;;;;;;13.94;73.27;97602.78;5047939;28;20779;-87
2023/10/06 01:04:52;;;;;;;14.23;6.87;;;;;;;13.89;73.92;97605.63;5048230;28;20202;-85
2023/10/06 01:07:19;;;;;;;13.67;6.70;;;;;;;13.96;74.18;97593.13;5048590;28;20205;-87
2023/10/06 01:09:56;;;;;;;15.03;7.33;;;;;;;14.05;73.59;97589.22;5032802;28;20642;-75
2023/10/06 01:12:31;;;;;;;13.13;7.30;;;;;;;14.04;74.18;97598.81;5027526;28;20676;-79
2023/10/06 01:15:19;;;;;;;13.10;6.93;;;;;;;14.11;74.34;97599.34;5025808;28;20197;-78
2023/10/06 01:17:47;;;;;;;12.90;7.00;;;;;;;14.12;74.00;97596.66;5026549;28;20832;-80
2023/10/06 01:20:40;;;;;;;15.67;7.37;;;;;;;14.07;73.64;97596.06;5028633;28;20762;-86
2023/10/06 01:23:20;;;;;;;16.70;8.33;;;;;;;14.24;73.01;97601.22;5027273;28;20230;-87
2023/10/06 01:25:53;;;;;;;17.33;7.33;;;;;;;14.32;72.87;97598.28;5028663;28;20201;-86
2023/10/06 01:28:23;;;;;;;12.20;6.67;;;;;;;14.43;72.40;97604.59;5039985;28;20197;-86
2023/10/06 01:30:51;;;;;;;15.83;7.10;;;;;;;14.53;72.00;97608.41;5047841;28;20205;-82
2023/10/06 01:33:18;;;;;;;16.67;7.63;;;;;;;14.45;72.50;97599.31;5047044;28;20212;-81
2023/10/06 01:35:45;;;;;;;11.70;7.03;;;;;;;14.31;72.85;97607.84;5028055;28;20288;-83
2023/10/06 01:38:22;;;;;;;16.53;7.83;;;;;;;14.38;72.84;97601.41;5037588;28;20209;-83
2023/10/06 01:40:53;;;;;;;14.90;7.73;;;;;;;14.14;72.96;97579.19;5046150;28;20202;-81
2023/10/06 01:43:24;;;;;;;11.73;7.20;;;;;;;14.55;71.85;97597.91;5046995;28;20245;-82
2023/10/06 01:45:51;;;;;;;15.20;7.10;;;;;;;14.58;72.00;97600.34;5060733;28;20236;-86
2023/10/06 01:50:49;;;;;;;11.23;6.57;;;;;;;14.48;72.36;97605.22;5026826;28;20824;-70
2023/10/06 01:53:20;;;;;;;13.13;6.77;;;;;;;14.37;72.46;97607.53;5026816;28;20245;-82
2023/10/06 01:56:27;;;;;;;15.50;7.53;;;;;;;14.42;72.20;97618.56;5028267;28;20229;-80
2023/10/06 01:59:49;;;;;;;16.23;6.53;;;;;;;14.67;71.23;97613.75;5034004;28;20255;-71
2023/10/06 02:03:17;;;;;;;11.97;6.77;;;;;;;14.63;71.41;97608.78;5046620;28;20231;-75
2023/10/06 02:05:59;;;;;;;11.67;6.93;;;;;;;14.62;71.42;97610.56;5024592;28;20200;-85
2023/10/06 02:08:27;;;;;;;11.03;6.37;;;;;;;14.77;70.53;97605.44;5028313;28;20684;-87
2023/10/06 02:10:55;;;;;;;13.57;6.63;;;;;;;14.56;71.21;97597.00;5046774;28;20205;-84
2023/10/06 02:13:22;;;;;;;12.63;6.03;;;;;;;14.54;71.43;97597.09;5047260;28;20220;-86
2023/10/06 02:15:56;;;;;;;13.30;6.03;;;;;;;14.85;70.48;97598.03;5047314;28;20201;-86
2023/10/06 02:18:25;;;;;;;14.67;7.20;;;;;;;14.89;70.51;97599.56;5047216;28;20669;-81
2023/10/06 02:20:52;;;;;;;15.27;7.00;;;;;;;14.75;70.94;97602.94;5046419;28;20318;-86
2023/10/06 02:23:19;;;;;;;11.03;6.13;;;;;;;14.67;71.72;97605.09;5045734;28;20233;-85
2023/10/06 02:25:46;;;;;;;13.93;8.07;;;;;;;14.61;71.99;97597.59;5029709;28;20209;-84
2023/10/06 02:28:14;;;;;;;15.67;6.70;;;;;;;14.51;72.30;97605.03;5027249;28;20723;-86
2023/10/06 02:30:44;;;;;;;13.93;7.03;;;;;;;14.50;73.24;97603.38;5014485;28;20198;-85
2023/10/06 02:33:11;;;;;;;13.10;6.57;;;;;;;14.52;72.95;97601.53;5030134;28;20309;-87
2023/10/06 02:35:45;;;;;;;12.80;7.17;;;;;;;14.59;72.63;97602.03;5031427;28;20221;-87
2023/10/06 02:38:13;;;;;;;12.20;6.70;;;;;;;14.48;73.08;97600.00;5031789;28;20708;-83
2023/10/06 02:40:47;;;;;;;13.87;6.37;;;;;;;14.64;72.09;97598.28;5029218;28;20237;-85
2023/10/06 02:43:20;;;;;;;11.03;6.23;;;;;;;14.60;72.60;97594.16;5031811;28;20251;-85
2023/10/06 02:45:47;;;;;;;14.30;6.83;;;;;;;14.35;73.70;97604.16;5030720;28;20201;-86
2023/10/06 02:48:15;;;;;;;9.97;6.10;;;;;;;14.29;73.94;97594.06;5030041;28;20788;-85
2023/10/06 02:50:44;;;;;;;14.17;6.63;;;;;;;14.29;73.51;97588.84;5031902;28;20202;-86
2023/10/06 02:53:20;;;;;;;14.07;7.17;;;;;;;14.42;72.62;97576.88;5030975;28;20187;-78
2023/10/06 02:55:55;;;;;;;12.13;7.23;;;;;;;14.57;71.51;97588.22;5031576;28;20264;-74
2023/10/06 02:58:30;;;;;;;17.47;7.93;;;;;;;14.33;71.30;97594.72;5030046;28;20673;-85
2023/10/06 03:00:58;;;;;;;14.77;7.57;;;;;;;14.29;71.74;97594.06;5031593;28;20775;-83
2023/10/06 03:03:29;;;;;;;15.17;7.57;;;;;;;14.40;71.32;97581.34;5029254;28;20232;-84
2023/10/06 03:05:58;;;;;;;17.60;8.37;;;;;;;14.34;70.95;97584.22;5029423;28;20207;-81
2023/10/06 03:08:28;;;;;;;14.13;8.37;;;;;;;14.35;71.66;97580.72;5031127;28;20669;-87
2023/10/06 03:10:55;;;;;;;16.10;8.13;;;;;;;14.35;71.89;97585.06;5029587;28;20229;-83
2023/10/06 03:13:32;;;;;;;13.10;7.83;;;;;;;14.01;71.70;97572.06;5029738;28;20193;-83
2023/10/06 03:16:02;;;;;;;18.33;7.43;;;;;;;13.95;72.51;97588.84;5033675;28;20292;-80
2023/10/06 03:18:30;;;;;;;15.23;8.17;;;;;;;13.70;73.60;97589.22;5050643;28;20237;-85
2023/10/06 03:21:00;;;;;;;16.73;7.97;;;;;;;13.37;74.59;97584.84;5050280;28;20258;-84
2023/10/06 03:23:38;;;;;;;11.83;6.67;;;;;;;13.19;75.83;97596.94;5046325;28;20234;-84
2023/10/06 03:28:52;;;;;;;13.97;7.50;;;;;;;13.25;76.40;97582.81;5053699;28;20200;-82
2023/10/06 03:33:54;;;;;;;17.83;8.30;;;;;;;13.30;76.81;97583.41;5048023;28;20200;-84
2023/10/06 03:36:38;;;;;;;14.27;7.73;;;;;;;13.47;75.95;97580.88;5044437;28;20599;-84
2023/10/06 03:39:07;;;;;;;15.23;7.67;;;;;;;13.53;76.04;97585.75;5039818;28;20206;-70
2023/10/06 03:41:37;;;;;;;14.27;7.30;;;;;;;13.19;76.42;97538.91;5047131;28;20197;-78
2023/10/06 03:44:04;;;;;;;11.07;7.00;;;;;;;13.61;76.15;97588.84;5049611;28;20248;-83
2023/10/06 03:46:38;;;;;;;13.30;7.40;;;;;;;13.74;75.83;97595.97;5045157;28;20201;-83
2023/10/06 03:49:07;;;;;;;13.50;6.87;;;;;;;13.63;76.24;97587.84;5047739;28;20254;-79
2023/10/06 03:51:38;;;;;;;15.23;6.97;;;;;;;13.71;76.46;97584.84;5046527;28;20206;-86
2023/10/06 03:54:10;;;;;;;13.93;6.93;;;;;;;13.68;76.80;97591.06;5048131;28;20202;-73
2023/10/06 03:56:37;;;;;;;14.17;7.63;;;;;;;13.72;77.29;97587.38;5046669;28;20196;-83
2023/10/06 03:59:12;;;;;;;14.93;7.40;;;;;;;13.64;77.29;97589.53;5048292;28;20189;-69
2023/10/06 04:01:44;;;;;;;11.63;6.33;;;;;;;13.81;77.22;97584.34;5046415;28;20265;-70
2023/10/06 04:04:15;;;;;;;12.27;6.20;;;;;;;13.90;77.43;97585.63;5048565;28;20756;-85
2023/10/06 04:06:43;;;;;;;11.70;6.47;;;;;;;14.01;76.49;97587.69;5047087;28;20204;-85
2023/10/06 04:09:11;;;;;;;14.07;7.50;;;;;;;13.94;76.89;97584.56;5049635;28;20653;-85
2023/10/06 04:11:38;;;;;;;12.37;6.50;;;;;;;13.91;76.77;97584.69;5029495;28;20210;-84
2023/10/06 04:14:09;;;;;;;13.30;7.07;;;;;;;14.04;76.40;97587.53;5049334;28;20248;-83
2023/10/06 04:17:21;;;;;;;20.60;8.07;;;;;;;14.03;75.94;97588.47;5044286;28;20206;-80
2023/10/06 04:20:42;;;;;;;15.00;7.43;;;;;;;14.26;75.22;97588.97;5044125;28;20193;-86
2023/10/06 04:24:03;;;;;;;15.73;7.20;;;;;;;14.20;75.71;97584.06;5037720;28;20716;-85
2023/10/06 04:27:24;;;;;;;12.53;6.67;;;;;;;14.20;76.18;97591.06;5049069;28;20641;-86
2023/10/06 04:30:45;;;;;;;18.83;9.00;;;;;;;14.19;76.48;97598.03;5048028;28;20726;-81
2023/10/06 04:34:05;;;;;;;13.47;7.27;;;;;;;14.24;75.74;97598.63;5043166;28;20196;-84
2023/10/06 04:37:26;;;;;;;13.87;7.07;;;;;;;14.24;75.39;97601.22;5047197;28;20240;-77
2023/10/06 04:40:48;;;;;;;13.77;7.00;;;;;;;14.34;75.07;97604.25;5047917;28;20839;-71
2023/10/06 04:44:10;;;;;;;12.93;7.87;;;;;;;13.98;75.54;97583.47;5043077;28;20217;-85
2023/10/06 04:47:36;;;;;;;14.93;7.97;;;;;;;14.30;74.00;97598.34;5048273;28;20197;-81
2023/10/06 04:50:57;;;;;;;13.10;7.53;;;;;;;14.34;73.97;97597.25;5046676;28;20247;-79
2023/10/06 04:54:20;;;;;;;16.67;7.13;;;;;;;14.50;73.17;97603.38;5047787;28;20215;-79
2023/10/06 04:57:41;;;;;;;12.20;7.03;;;;;;;14.49;73.10;97603.44;5031569;28;20198;-76
2023/10/06 05:00:21;;;;;;;18.17;9.00;;;;;;;14.35;72.90;97604.16;5047302;28;20197;-83
2023/10/06 05:02:50;;;;;;;16.73;8.43;;;;;;;14.46;73.07;97608.81;5046940;28;20201;-77
2023/10/06 05:05:23;;;;;;;14.97;8.93;;;;;;;14.61;72.49;97616.66;5047981;28;20204;-72
2023/10/06 05:07:54;;;;;;;18.40;7.70;;;;;;;14.72;71.92;97607.44;5046635;28;20196;-69
2023/10/06 05:10:25;;;;;;;17.63;8.07;;;;;;;14.78;71.59;97614.94;5047967;28;20205;-82
2023/10/06 05:12:53;;;;;;;13.83;8.77;;;;;;;14.82;71.63;97613.88;5046667;28;20285;-81
2023/10/06 05:15:26;;;;;;;21.53;8.47;;;;;;;14.79;72.17;97629.66;5047966;28;20190;-81
2023/10/06 05:17:55;;;;;;;14.03;7.70;;;;;;;14.98;71.72;97625.16;5047188;28;20229;-80
2023/10/06 05:20:29;;;;;;;14.37;7.23;;;;;;;14.97;71.49;97619.09;5046806;28;20202;-81
2023/10/06 05:23:09;;;;;;;14.53;7.63;;;;;;;14.90;71.86;97620.34;5047563;28;20233;-78
2023/10/06 05:25:37;;;;;;;17.03;8.67;;;;;;;15.14;71.35;97619.03;5046796;28;20202;-84
2023/10/06 05:28:10;;;;;;;16.17;8.20;;;;;;;15.25;70.90;97629.72;5047698;28;20278;-80
2023/10/06 05:30:38;;;;;;;18.13;9.27;;;;;;;15.56;70.35;97628.88;5048258;28;20197;-77
2023/10/06 05:33:05;;;;;;;13.53;7.83;;;;;;;15.80;69.43;97637.97;5052512;28;20199;-79
2023/10/06 05:35:40;;;;;;;13.10;6.57;;;;;;;15.90;69.60;97631.28;5047492;28;20202;-80
2023/10/06 05:38:13;;;;;;;13.23;6.50;;;;;;;15.96;69.48;97633.53;5046244;28;20190;-84
2023/10/06 05:40:42;;;;;;;23.77;13.23;;;;;;;16.06;69.09;97629.44;5048692;28;20284;-75
2023/10/06 05:43:11;;;;;;;16.90;7.60;;;;;;;16.10;69.36;97637.94;5046305;28;20300;-80
2023/10/06 05:45:39;;;;;;;14.87;6.43;;;;;;;15.88;70.55;97635.75;5046258;28;20204;-82
2023/10/06 05:48:12;;;;;;;15.23;7.40;;;;;;;15.90;71.12;97638.25;5047155;28;20214;-80
2023/10/06 05:50:43;;;;;;;16.87;7.00;;;;;;;15.75;71.79;97633.91;5046756;28;20608;-81
2023/10/06 05:53:19;;;;;;;16.13;7.00;;;;;;;15.77;71.52;97625.06;5047221;28;20202;-75
2023/10/06 05:55:49;;;;;;;16.77;7.77;;;;;;;15.84;71.84;97633.38;5035202;28;20280;-72
2023/10/06 05:58:23;;;;;;;15.03;7.63;;;;;;;15.94;71.96;97632.78;5033206;28;20305;-79
2023/10/06 06:00:50;;;;;;;11.93;6.40;;;;;;;15.86;72.15;97631.53;5045995;28;20198;-77
2023/10/06 06:03:23;;;;;;;14.00;6.33;;;;;;;15.91;72.28;97650.41;5045795;28;20706;-76
2023/10/06 06:05:53;;;;;;;11.27;6.93;;;;;;;15.99;72.06;97654.25;5047013;28;20208;-82
2023/10/06 06:08:21;;;;;;;15.13;7.00;;;;;;;16.01;71.69;97636.69;5045673;28;20199;-86
2023/10/06 06:10:48;;;;;;;16.77;7.33;;;;;;;16.06;71.81;97658.19;5046931;28;20209;-78
2023/10/06 06:13:18;;;;;;;13.07;7.10;;;;;;;16.00;72.02;97647.25;5044643;28;20229;-71
2023/10/06 06:15:49;;;;;;;16.63;7.90;;;;;;;16.11;71.41;97645.72;5046851;28;20197;-76
2023/10/06 06:18:16;;;;;;;16.17;7.67;;;;;;;16.17;71.06;97661.03;5045760;28;20221;-78
2023/10/06 06:20:43;;;;;;;12.63;7.27;;;;;;;16.22;70.96;97660.75;5045938;28;20252;-73
2023/10/06 06:23:15;;;;;;;18.13;7.50;;;;;;;16.45;70.68;97656.78;5047629;28;20244;-70
2023/10/06 06:25:46;;;;;;;14.00;6.47;;;;;;;16.49;70.28;97659.16;5046811;28;20271;-69
2023/10/06 06:28:14;;;;;;;12.03;6.57;;;;;;;16.43;70.97;97658.66;5047960;28;20595;-70
2023/10/06 06:30:42;;;;;;;14.47;6.80;;;;;;;16.71;70.10;97669.19;5046319;28;20247;-72
2023/10/06 06:33:12;;;;;;;15.93;7.90;;;;;;;16.96;68.46;97645.84;5046864;28;20598;-70
2023/10/06 06:35:42;;;;;;;12.27;6.53;;;;;;;17.42;67.42;97668.22;5046000;28;20198;-72
2023/10/06 06:38:12;;;;;;;14.93;8.53;;;;;;;17.61;67.20;97660.06;5044776;28;20218;-70
2023/10/06 06:40:40;;;;;;;20.87;9.60;;;;;;;17.77;66.57;97656.38;5046045;28;20220;-70
2023/10/06 06:43:11;;;;;;;19.57;8.47;;;;;;;18.01;65.93;97635.56;5045246;28;20272;-70
2023/10/06 06:45:42;;;;;;;14.57;7.90;;;;;;;18.40;65.02;97659.13;5048785;28;20645;-81
2023/10/06 06:48:13;;;;;;;18.40;8.10;;;;;;;18.73;63.82;97650.81;5045279;28;20222;-74
2023/10/06 06:50:44;;;;;;;15.33;7.70;;;;;;;18.86;63.62;97654.25;5045772;28;20196;-73
2023/10/06 06:53:12;;;;;;;18.63;8.20;;;;;;;18.84;63.58;97643.03;5043621;28;20224;-74
2023/10/06 06:55:40;;;;;;;20.93;8.30;;;;;;;19.14;62.99;97645.31;5025375;28;20206;-75
2023/10/06 06:58:16;;;;;;;18.63;7.67;;;;;;;19.41;62.58;97649.47;5027885;28;20197;-80
2023/10/06 07:00:47;;;;;;;15.03;7.93;;;;;;;19.66;62.45;97648.56;5043936;28;20204;-75
2023/10/06 07:03:15;;;;;;;16.77;7.90;;;;;;;19.82;61.31;97640.41;5044777;28;20673;-84
2023/10/06 07:05:43;;;;;;;18.50;8.27;;;;;;;20.27;60.21;97643.16;5045211;28;20641;-83
2023/10/06 07:08:11;;;;;;;18.40;8.03;;;;;;;20.32;60.02;97648.03;5044476;28;20240;-80
2023/10/06 07:10:46;;;;;;;16.07;8.03;;;;;;;20.55;59.73;97649.78;5024629;28;20198;-77
2023/10/06 07:13:14;;;;;;;16.80;7.67;;;;;;;20.77;58.74;97644.53;5029516;28;20237;-77
2023/10/06 07:15:41;;;;;;;18.73;8.23;;;;;;;20.97;58.40;97651.75;5049781;28;20217;-81
2023/10/06 07:18:11;;;;;;;19.23;7.80;;;;;;;21.06;58.25;97658.16;5034158;28;20256;-78
2023/10/06 07:20:39;;;;;;;13.70;7.20;;;;;;;21.06;57.82;97656.34;5035926;28;20192;-85
2023/10/06 07:23:06;;;;;;;11.63;7.50;;;;;;;21.17;57.52;97630.94;5036839;28;20201;-78
2023/10/06 07:25:33;;;;;;;13.07;7.00;;;;;;;21.41;56.82;97660.66;5053362;28;20207;-82
2023/10/06 07:28:00;;;;;;;16.57;7.00;;;;;;;21.18;56.90;97643.16;5052846;28;20227;-75
2023/10/06 07:30:29;;;;;;;14.67;7.70;;;;;;;21.24;56.55;97653.22;5033906;28;20702;-84
2023/10/06 07:32:56;;;;;;;13.20;7.80;;;;;;;21.23;56.59;97648.91;5032029;28;20262;-73
2023/10/06 07:35:36;;;;;;;14.67;7.03;;;;;;;21.11;56.90;97650.72;5048852;28;20614;-85
2023/10/06 07:38:04;;;;;;;10.10;6.20;;;;;;;21.15;56.59;97648.66;5052860;28;20204;-79
2023/10/06 07:40:32;;;;;;;11.17;7.20;;;;;;;21.09;56.91;97655.25;5051200;28;20322;-83
2023/10/06 07:42:59;;;;;;;12.33;6.70;;;;;;;20.93;56.77;97634.53;5047549;28;20190;-73
2023/10/06 07:45:31;;;;;;;20.53;6.80;;;;;;;21.00;56.39;97648.88;5052771;28;20823;-81
2023/10/06 07:47:58;;;;;;;14.07;7.00;;;;;;;21.29;56.24;97653.72;5051648;28;20199;-74
2023/10/06 07:50:28;;;;;;;13.70;6.07;;;;;;;21.48;56.07;97644.22;5052201;28;20205;-78
2023/10/06 07:52:56;;;;;;;13.70;6.67;;;;;;;21.70;54.94;97656.53;5047494;28;20202;-79
2023/10/06 07:55:24;;;;;;;10.83;6.90;;;;;;;21.70;55.21;97662.63;5048543;28;20211;-84
2023/10/06 07:57:51;;;;;;;13.10;6.30;;;;;;;21.81;55.12;97649.44;5033509;28;20219;-86
2023/10/06 08:00:29;;;;;;;12.97;6.97;;;;;;;21.96;54.95;97668.47;5043502;28;20205;-82
2023/10/06 08:02:59;;;;;;;12.07;7.83;;;;;;;21.90;55.18;97658.41;5049056;28;20194;-83
2023/10/06 08:05:28;;;;;;;12.47;6.50;;;;;;;21.54;55.34;97671.88;5045178;28;20245;-84
2023/10/06 08:07:58;;;;;;;12.47;6.77;;;;;;;21.43;56.18;97669.25;5033588;28;20235;-82
2023/10/06 08:11:06;;;;;;;12.07;7.03;;;;;;;21.39;55.89;97667.84;5045727;28;20204;-86
2023/10/06 08:13:44;;;;;;;10.43;6.60;;;;;;;21.30;56.37;97681.72;5036786;28;20237;-80
2023/10/06 08:16:12;;;;;;;18.57;7.77;;;;;;;21.24;56.66;97671.66;5048913;28;20191;-80
2023/10/06 08:18:40;;;;;;;11.90;6.37;;;;;;;21.03;57.00;97656.59;5028582;28;20231;-82
2023/10/06 08:21:07;;;;;;;11.80;7.07;;;;;;;20.96;57.15;97649.22;5048731;28;20290;-77
2023/10/06 08:23:37;;;;;;;14.73;7.43;;;;;;;21.04;57.46;97663.50;5047476;28;20749;-79
2023/10/06 08:26:08;;;;;;;14.23;7.30;;;;;;;21.07;57.64;97667.72;5046964;28;20202;-72
2023/10/06 08:28:36;;;;;;;11.30;7.40;;;;;;;21.03;57.21;97672.38;5046866;28;20270;-81
2023/10/06 08:31:03;;;;;;;12.57;7.83;;;;;;;21.12;57.38;97675.25;5027736;28;20238;-83
2023/10/06 08:33:31;;;;;;;15.50;7.63;;;;;;;21.12;57.15;97675.25;5028719;28;20214;-75
2023/10/06 08:36:01;;;;;;;26.40;8.13;;;;;;;21.28;57.33;97673.09;5047163;28;20195;-82
2023/10/06 08:38:30;;;;;;;12.13;7.03;;;;;;;21.48;56.82;97678.47;5049919;28;20203;-78
2023/10/06 08:41:02;;;;;;;10.73;6.77;;;;;;;21.63;56.30;97672.00;5050637;28;20352;-84
2023/10/06 08:43:34;;;;;;;14.47;7.73;;;;;;;21.60;56.01;97648.50;5053101;28;20283;-79
2023/10/06 08:46:01;;;;;;;17.47;7.17;;;;;;;21.79;55.57;97661.88;5056244;28;20208;-79
2023/10/06 08:48:35;;;;;;;14.50;7.90;;;;;;;21.67;55.93;97678.69;5050314;28;20191;-78
2023/10/06 08:51:07;;;;;;;10.87;7.33;;;;;;;21.83;55.33;97667.78;5052073;28;20215;-73
2023/10/06 08:53:39;;;;;;;10.83;7.77;;;;;;;21.79;55.43;97679.50;5050533;28;20206;-79
2023/10/06 08:56:06;;;;;;;13.03;7.57;;;;;;;21.81;55.41;97653.84;5035231;28;20284;-73
2023/10/06 08:58:35;;;;;;;15.87;7.97;;;;;;;21.93;55.10;97668.69;5030140;28;20201;-75
2023/10/06 09:01:06;;;;;;;15.33;8.97;;;;;;;22.18;54.46;97660.47;5029888;28;20206;-76
2023/10/06 09:03:36;;;;;;;13.73;8.13;;;;;;;22.49;54.01;97656.94;5030105;28;20209;-83
2023/10/06 09:06:04;;;;;;;17.10;8.70;;;;;;;22.70;53.57;97662.25;5046885;28;20195;-76
2023/10/06 09:08:44;;;;;;;14.10;8.77;;;;;;;22.67;53.28;97659.06;5048818;28;20197;-79
2023/10/06 09:11:12;;;;;;;15.90;8.50;;;;;;;22.68;52.93;97664.19;5047116;28;20208;-83
2023/10/06 09:13:39;;;;;;;15.13;9.03;;;;;;;22.83;52.02;97676.13;5047708;28;20299;-75
2023/10/06 09:16:06;;;;;;;16.53;9.83;;;;;;;22.74;52.62;97668.13;5048469;28;20652;-84
2023/10/06 09:18:35;;;;;;;17.43;9.17;;;;;;;22.69;51.88;97657.13;5047434;28;20252;-79
2023/10/06 09:21:19;;;;;;;11.80;8.63;;;;;;;22.75;52.29;97662.69;5047691;28;20213;-78
2023/10/06 09:23:49;;;;;;;19.37;11.23;;;;;;;22.93;52.14;97660.31;5046948;28;20198;-80
2023/10/06 09:26:29;;;;;;;14.83;10.13;;;;;;;22.76;52.22;97664.38;5047239;28;20223;-73
2023/10/06 09:29:01;;;;;;;18.47;9.83;;;;;;;22.67;52.83;97655.44;5046975;28;20195;-77
2023/10/06 09:31:44;;;;;;;17.13;10.43;;;;;;;22.67;52.15;97632.66;5036597;28;20262;-83
2023/10/06 09:34:23;;;;;;;15.43;9.47;;;;;;;23.09;51.46;97648.28;5046022;28;20651;-79
2023/10/06 09:36:51;;;;;;;16.43;10.70;;;;;;;23.19;51.34;97648.31;5025730;28;20191;-79
2023/10/06 09:39:37;;;;;;;14.07;9.17;;;;;;;23.11;51.97;97656.91;5025801;28;20273;-81
2023/10/06 09:42:09;;;;;;;12.33;9.07;;;;;;;23.05;51.63;97651.31;5027407;28;20233;-75
2023/10/06 09:44:41;;;;;;;13.90;9.20;;;;;;;23.01;51.72;97647.28;5025960;28;20218;-83
2023/10/06 09:47:11;;;;;;;12.93;9.57;;;;;;;23.07;51.25;97628.25;5027412;28;20286;-81
2023/10/06 09:49:40;;;;;;;14.50;8.97;;;;;;;23.22;51.14;97645.44;5025854;28;20291;-76
2023/10/06 09:52:12;;;;;;;14.90;9.67;;;;;;;23.47;50.93;97636.22;5027465;28;20307;-78
2023/10/06 09:54:39;;;;;;;14.73;9.90;;;;;;;23.62;50.00;97637.53;5026043;28;20195;-80
2023/10/06 09:57:07;;;;;;;15.43;10.00;;;;;;;23.56;49.75;97638.88;5026425;28;20222;-84
2023/10/06 09:59:34;;;;;;;19.17;9.97;;;;;;;23.44;49.77;97634.66;5026806;28;20199;-85
2023/10/06 10:02:04;;;;;;;15.23;9.90;;;;;;;23.51;50.02;97629.69;5025555;28;20716;-76
2023/10/06 10:04:33;;;;;;;13.80;9.70;;;;;;;23.65;49.67;97622.22;5027008;28;20314;-84
2023/10/06 10:07:02;;;;;;;15.30;10.40;;;;;;;23.62;48.84;97633.03;5025691;28;20290;-86
2023/10/06 10:09:49;;;;;;;15.77;10.63;;;;;;;23.81;48.37;97611.91;5026308;28;20261;-73
2023/10/06 10:12:31;;;;;;;17.47;10.73;;;;;;;23.48;47.77;97627.31;5026655;28;20204;-84
2023/10/06 10:15:02;;;;;;;16.60;12.03;;;;;;;23.37;48.40;97626.44;5025586;28;20197;-82
2023/10/06 10:17:50;;;;;;;15.07;10.40;;;;;;;23.45;48.36;97620.50;5009350;28;20240;-76
2023/10/06 10:20:17;;;;;;;15.93;10.27;;;;;;;23.59;48.34;97621.91;5025004;28;20276;-73
2023/10/06 10:22:44;;;;;;;19.93;10.93;;;;;;;23.93;47.38;97621.41;5026718;28;20662;-73
2023/10/06 10:25:13;;;;;;;19.57;10.43;;;;;;;24.01;47.54;97616.25;5026656;28;20244;-74
2023/10/06 10:27:44;;;;;;;17.17;10.83;;;;;;;24.12;46.74;97616.16;5025793;28;20214;-74
2023/10/06 10:30:14;;;;;;;15.43;10.17;;;;;;;24.25;46.84;97611.38;5026962;28;20894;-74
2023/10/06 10:32:42;;;;;;;13.37;9.50;;;;;;;23.86;47.07;97614.16;5025712;28;20684;-73
2023/10/06 10:35:16;;;;;;;15.37;10.90;;;;;;;23.74;46.72;97610.78;5026376;28;20207;-79
2023/10/06 10:37:58;;;;;;;19.97;10.53;;;;;;;23.82;47.14;97602.19;5025798;28;20293;-71
2023/10/06 10:40:31;;;;;;;17.10;11.53;;;;;;;23.80;46.65;97578.47;5024037;28;20290;-75
2023/10/06 10:43:05;;;;;;;15.67;10.67;;;;;;;23.82;46.15;97547.44;5024679;28;20205;-73
2023/10/06 10:45:38;;;;;;;13.67;10.50;;;;;;;24.05;44.89;97585.91;5025160;28;20236;-82
2023/10/06 10:48:12;;;;;;;14.00;10.53;;;;;;;24.22;45.52;97595.78;5025573;28;20203;-72
2023/10/06 10:51:00;;;;;;;14.70;10.27;;;;;;;24.17;45.35;97587.44;5012045;28;20195;-78
2023/10/06 10:53:31;;;;;;;16.93;10.77;;;;;;;24.14;45.62;97592.19;5029397;28;20200;-71
2023/10/06 10:55:59;;;;;;;16.27;12.07;;;;;;;24.13;45.45;97574.63;5030155;28;20192;-73
2023/10/06 10:58:47;;;;;;;17.40;10.57;;;;;;;24.04;44.90;97570.19;5028355;28;20208;-73
2023/10/06 11:01:27;;;;;;;15.37;10.40;;;;;;;24.10;45.30;97567.81;5029562;28;20209;-75
2023/10/06 11:04:18;;;;;;;13.47;10.20;;;;;;;23.97;45.66;97563.72;5028748;28;20203;-73
2023/10/06 11:06:48;;;;;;;16.53;10.83;;;;;;;23.82;45.66;97513.03;5027219;28;20204;-74
2023/10/06 11:09:26;;;;;;;15.80;9.37;;;;;;;23.99;45.00;97562.63;5029773;28;20207;-74
2023/10/06 11:11:58;;;;;;;13.13;10.00;;;;;;;24.11;45.30;97561.53;5028480;28;20197;-76
2023/10/06 11:14:46;;;;;;;13.17;9.73;;;;;;;24.16;44.50;97553.16;5028328;28;20196;-71
2023/10/06 11:17:14;;;;;;;16.10;9.73;;;;;;;24.22;43.79;97545.50;5029733;28;20751;-75
2023/10/06 11:19:41;;;;;;;13.47;10.00;;;;;;;24.28;44.04;97553.88;5030675;28;20214;-71
2023/10/06 11:22:13;;;;;;;13.63;9.97;;;;;;;24.08;44.40;97551.22;5050271;28;20654;-70
2023/10/06 11:24:41;;;;;;;15.07;10.23;;;;;;;24.08;44.19;97540.66;5048147;28;20231;-70
2023/10/06 11:27:22;;;;;;;16.37;11.20;;;;;;;24.25;43.82;97563.72;5031695;28;20292;-73
2023/10/06 11:29:52;;;;;;;13.07;10.13;;;;;;;24.11;43.32;97556.22;5028661;28;20204;-70
2023/10/06 11:32:21;;;;;;;13.70;9.87;;;;;;;24.16;44.07;97551.38;5028874;28;20251;-72
2023/10/06 11:34:50;;;;;;;17.37;10.50;;;;;;;24.09;43.98;97549.44;5029780;28;20252;-71
2023/10/06 11:37:22;;;;;;;17.47;9.43;;;;;;;24.13;43.99;97558.75;5047966;28;20212;-71
2023/10/06 11:39:53;;;;;;;14.47;9.83;;;;;;;23.97;44.93;97555.78;5048970;28;20280;-72
2023/10/06 11:42:24;;;;;;;13.10;9.53;;;;;;;23.80;45.41;97565.25;5047863;28;20315;-74
2023/10/06 11:44:56;;;;;;;13.03;9.93;;;;;;;23.95;45.52;97557.75;5049064;28;20254;-72
2023/10/06 11:47:26;;;;;;;13.97;9.83;;;;;;;24.02;45.19;97561.50;5048414;28;20201;-77
2023/10/06 11:50:01;;;;;;;14.27;10.40;;;;;;;24.11;44.88;97566.00;5049186;28;20692;-73
2023/10/06 11:52:32;;;;;;;17.90;9.90;;;;;;;24.01;44.78;97558.03;5049087;28;20234;-78
2023/10/06 11:55:05;;;;;;;14.10;9.33;;;;;;;23.87;44.78;97558.44;5048022;28;20213;-76
2023/10/06 11:57:45;;;;;;;12.33;9.17;;;;;;;23.82;44.98;97560.66;5049171;28;20201;-71
2023/10/06 12:00:17;;;;;;;13.80;8.77;;;;;;;23.65;45.21;97566.66;5046137;28;20262;-73
2023/10/06 12:02:53;;;;;;;13.43;9.23;;;;;;;23.48;45.43;97555.91;5048488;28;20218;-71
2023/10/06 12:05:24;;;;;;;13.20;9.03;;;;;;;23.39;45.69;97541.69;5046125;28;20311;-76
2023/10/06 12:07:52;;;;;;;16.33;9.50;;;;;;;23.63;45.84;97562.47;5028332;28;20628;-81